Time;durP1;ratioP1;P1;durP2;ratioP2;P2;SDS_P1;SDS_P2;PMS_P1;PMS_P2;Temp;Humidity;BMP_temperature;BMP_pressure;BME280_temperature;BME280_humidity;BME280_pressure;Samples;Min_cycle;Max_cycle;Signal;HPM_P1;HPM_P2
2022/06/25 00:10:20;;;;;;;7.97;4.30;;;18.10;99.90;;;;;;2613056;54;20341;-75
2022/06/25 00:16:08;;;;;;;10.37;3.73;;;18.20;99.90;;;;;;2615030;31;20698;-73
2022/06/25 00:21:56;;;;;;;8.50;3.70;;;18.10;99.90;;;;;;2613914;54;20152;-73
2022/06/25 00:27:46;;;;;;;6.77;3.83;;;18.10;99.90;;;;;;2615126;54;20156;-73
2022/06/25 00:33:34;;;;;;;7.73;4.00;;;18.10;99.90;;;;;;2614808;46;20416;-73
2022/06/25 00:42:45;;;;;;;4.20;3.47;;;18.10;99.90;;;;;;2615156;46;20419;-74
2022/06/25 00:48:33;;;;;;;6.43;3.80;;;18.00;99.90;;;;;;2614709;54;20384;-73
2022/06/25 00:54:24;;;;;;;10.63;3.40;;;18.00;99.90;;;;;;2614212;54;20158;-74
2022/06/25 01:06:20;;;;;;;4.90;3.30;;;17.80;99.90;;;;;;2615221;54;20389;-79
2022/06/25 01:12:08;;;;;;;7.20;3.40;;;17.80;99.90;;;;;;2614444;54;20140;-75
2022/06/25 01:17:56;;;;;;;15.30;3.60;;;17.80;99.90;;;;;;2614891;54;20135;-77
2022/06/25 01:23:44;;;;;;;13.73;4.17;;;17.70;99.90;;;;;;2616081;31;20647;-78
2022/06/25 01:29:32;;;;;;;4.30;3.90;;;17.70;99.90;;;;;;2614178;54;20261;-78
2022/06/25 01:35:19;;;;;;;7.43;3.80;;;17.70;99.90;;;;;;2615206;54;20157;-78
2022/06/25 01:41:18;;;;;;;5.03;4.50;;;17.70;99.90;;;;;;2613951;46;20179;-75
2022/06/25 01:47:05;;;;;;;7.40;4.20;;;17.60;99.90;;;;;;2614247;54;20442;-78
2022/06/25 01:52:52;;;;;;;8.87;5.20;;;17.50;99.90;;;;;;2613195;54;20674;-78
2022/06/25 01:58:40;;;;;;;5.63;4.93;;;17.50;99.90;;;;;;2614261;54;20157;-78
2022/06/25 02:04:27;;;;;;;7.10;4.50;;;17.50;99.90;;;;;;2614653;54;20419;-78
2022/06/25 02:10:14;;;;;;;6.47;4.90;;;17.50;99.90;;;;;;2614949;39;20589;-78
2022/06/25 02:16:03;;;;;;;6.60;4.77;;;17.40;99.90;;;;;;2613979;54;20146;-78
2022/06/25 02:21:50;;;;;;;9.50;4.90;;;17.40;99.90;;;;;;2614920;54;20414;-78
2022/06/25 02:27:38;;;;;;;13.17;5.70;;;17.30;99.90;;;;;;2615201;54;20163;-78
2022/06/25 02:33:25;;;;;;;21.90;7.93;;;17.30;99.90;;;;;;2615168;54;20141;-73
2022/06/25 02:49:30;;;;;;;8.47;5.13;;;17.20;99.90;;;;;;2613900;54;21377;-73
2022/06/25 02:55:17;;;;;;;7.43;6.07;;;17.00;99.90;;;;;;2613665;54;20156;-74
2022/06/25 03:01:05;;;;;;;10.47;5.90;;;17.00;99.90;;;;;;2612827;54;20421;-73
2022/06/25 03:06:52;;;;;;;10.03;5.57;;;17.00;99.90;;;;;;2614540;39;20565;-72
2022/06/25 03:12:39;;;;;;;7.23;5.23;;;17.00;99.90;;;;;;2613250;54;20393;-73
2022/06/25 03:18:26;;;;;;;9.37;5.97;;;17.10;99.90;;;;;;2613664;54;20211;-74
2022/06/25 03:24:14;;;;;;;8.23;5.33;;;17.10;99.90;;;;;;2615169;54;20133;-72
2022/06/25 03:30:02;;;;;;;8.90;5.20;;;17.10;99.90;;;;;;2614964;54;20146;-72
2022/06/25 03:35:49;;;;;;;8.47;4.83;;;17.30;99.90;;;;;;2614489;54;20432;-74
2022/06/25 03:41:37;;;;;;;4.97;4.53;;;17.40;99.90;;;;;;2614351;54;20143;-72
2022/06/25 03:47:25;;;;;;;6.50;4.93;;;17.50;99.90;;;;;;2614813;54;20159;-73
2022/06/25 03:53:13;;;;;;;5.97;5.00;;;17.50;99.90;;;;;;2614390;54;20136;-72
2022/06/25 03:59:01;;;;;;;7.57;4.80;;;17.50;99.90;;;;;;2614797;54;20730;-72
2022/06/25 04:04:48;;;;;;;10.00;5.60;;;17.50;99.90;;;;;;2615642;39;20509;-75
2022/06/25 04:10:36;;;;;;;10.23;5.30;;;17.60;99.90;;;;;;2614487;54;21768;-72
2022/06/25 04:16:24;;;;;;;8.80;4.60;;;17.60;99.90;;;;;;2614670;39;20373;-74
2022/06/25 04:22:12;;;;;;;6.53;4.50;;;17.60;99.90;;;;;;2614826;54;20168;-73
2022/06/25 04:34:06;;;;;;;5.00;3.90;;;17.80;99.90;;;;;;2614969;54;20388;-74
2022/06/25 04:39:54;;;;;;;12.00;4.53;;;18.00;99.90;;;;;;2614832;54;20386;-74
2022/06/25 04:45:51;;;;;;;12.27;3.90;;;18.20;99.90;;;;;;2613482;54;20188;-74
2022/06/25 04:51:38;;;;;;;6.80;4.63;;;18.60;99.90;;;;;;2612980;54;21081;-74
2022/06/25 04:57:25;;;;;;;7.90;4.00;;;19.40;99.90;;;;;;2613640;39;20827;-74
2022/06/25 05:03:12;;;;;;;4.30;3.83;;;19.80;99.90;;;;;;2613165;39;20925;-72
2022/06/25 05:08:59;;;;;;;5.37;4.73;;;20.00;99.90;;;;;;2613599;54;20174;-73
2022/06/25 05:14:46;;;;;;;6.03;4.03;;;20.10;99.90;;;;;;2613761;54;20136;-73
2022/06/25 05:20:41;;;;;;;4.60;3.57;;;20.30;99.90;;;;;;2614260;46;20153;-74
2022/06/25 05:23:26;;;;;;;7.60;3.67;;;20.20;99.90;;;;;;2614683;46;20441;-74
2022/06/25 05:25:52;;;;;;;9.30;3.67;;;20.40;99.90;;;;;;2615326;39;20771;-73
2022/06/25 05:31:39;;;;;;;7.43;4.10;;;20.70;99.90;;;;;;2615142;54;20163;-77
2022/06/25 05:37:27;;;;;;;4.90;3.73;;;20.50;99.90;;;;;;2615628;54;20134;-76
2022/06/25 05:53:27;;;;;;;8.73;4.63;;;21.10;99.90;;;;;;2614384;54;20359;-77
2022/06/25 05:59:14;;;;;;;4.30;3.97;;;21.70;99.90;;;;;;2614730;39;20885;-77
2022/06/25 06:05:01;;;;;;;4.40;4.00;;;21.70;99.90;;;;;;2613951;54;20130;-77
2022/06/25 06:10:48;;;;;;;5.07;2.80;;;22.30;99.90;;;;;;2614624;39;20960;-77
2022/06/25 06:16:35;;;;;;;4.40;3.80;;;23.20;99.90;;;;;;2614836;39;20899;-76
2022/06/25 06:22:23;;;;;;;5.13;4.07;;;23.90;99.90;;;;;;2617333;39;20806;-77
2022/06/25 06:28:10;;;;;;;4.27;3.83;;;23.70;84.90;;;;;;2615778;54;20676;-76
2022/06/25 06:33:58;;;;;;;8.80;3.87;;;23.70;75.60;;;;;;2615755;54;20227;-76
2022/06/25 06:39:45;;;;;;;5.40;3.53;;;23.50;78.20;;;;;;2616325;54;20203;-76
2022/06/25 06:45:52;;;;;;;4.60;4.20;;;23.90;59.70;;;;;;2614513;54;20138;-77
2022/06/25 06:51:39;;;;;;;5.47;4.73;;;24.20;50.70;;;;;;2614921;39;20590;-77
2022/06/25 06:57:26;;;;;;;7.87;3.90;;;24.50;44.80;;;;;;2614352;54;20158;-77
2022/06/25 07:03:13;;;;;;;4.00;3.60;;;24.60;43.00;;;;;;2614245;31;20615;-77
2022/06/25 07:09:01;;;;;;;4.63;4.13;;;24.60;41.70;;;;;;2614233;54;20157;-78
2022/06/25 07:14:48;;;;;;;5.57;5.00;;;24.40;42.10;;;;;;2614358;54;20119;-77
2022/06/25 07:20:35;;;;;;;7.30;4.10;;;24.70;40.50;;;;;;2615135;54;20137;-78
2022/06/25 07:26:23;;;;;;;4.10;3.70;;;25.30;27.70;;;;;;2615440;54;20133;-77
2022/06/25 07:32:11;;;;;;;4.30;3.73;;;25.80;26.50;;;;;;2615443;54;20394;-76
2022/06/25 07:37:59;;;;;;;4.20;3.80;;;24.60;25.20;;;;;;2615796;39;20531;-77
2022/06/25 07:54:05;;;;;;;7.47;4.17;;;25.10;20.90;;;;;;2614112;54;20504;-77
2022/06/25 07:59:53;;;;;;;4.33;3.73;;;26.40;11.90;;;;;;2614253;54;20133;-78
2022/06/25 08:05:40;;;;;;;4.67;4.27;;;25.90;10.70;;;;;;2614017;54;20119;-78
2022/06/25 08:11:27;;;;;;;3.73;3.43;;;25.40;11.40;;;;;;2614114;54;20130;-77
2022/06/25 08:17:14;;;;;;;4.90;4.00;;;24.80;14.90;;;;;;2613855;54;20157;-77
2022/06/25 08:23:01;;;;;;;4.43;4.03;;;25.50;11.70;;;;;;2614007;54;20729;-77
2022/06/25 08:28:49;;;;;;;3.87;3.47;;;26.10;9.90;;;;;;2615179;54;20738;-78
2022/06/25 08:34:37;;;;;;;4.60;3.87;;;26.40;6.80;;;;;;2615869;39;20516;-78
2022/06/25 08:40:25;;;;;;;4.00;3.60;;;26.70;1.00;;;;;;2615209;54;20157;-76
2022/06/25 08:42:51;;;;;;;4.30;3.47;;;25.90;3.40;;;;;;2614686;47;20424;-78
2022/06/25 08:45:18;;;;;;;7.23;4.60;;;26.00;6.30;;;;;;2615555;54;20226;-77
2022/06/25 08:51:08;;;;;;;4.83;4.43;;;24.70;9.30;;;;;;2616087;54;20383;-78
2022/06/25 08:56:55;;;;;;;4.60;4.20;;;25.00;12.10;;;;;;2616002;54;20481;-77
2022/06/25 09:02:43;;;;;;;4.07;3.40;;;26.10;3.60;;;;;;2615907;54;20146;-78
2022/06/25 09:08:31;;;;;;;5.13;3.80;;;26.50;4.80;;;;;;2616019;54;20170;-78
2022/06/25 09:14:20;;;;;;;5.33;4.27;;;26.60;2.00;;;;;;2616153;54;20158;-77
2022/06/25 09:20:08;;;;;;;6.80;4.33;;;28.00;1.00;;;;;;2615807;54;21011;-78
2022/06/25 09:26:08;;;;;;;6.23;4.60;;;26.50;2.80;;;;;;2615992;54;20130;-78
2022/06/25 09:31:56;;;;;;;4.10;3.80;;;25.70;4.00;;;;;;2616117;54;20410;-77
2022/06/25 09:37:43;;;;;;;5.73;4.00;;;26.10;4.30;;;;;;2616393;54;20138;-77
2022/06/25 09:47:44;;;;;;;5.57;3.90;;;28.00;1.00;;;;;;2615930;54;20406;-78
2022/06/25 09:53:34;;;;;;;6.20;4.37;;;26.80;1.00;;;;;;2614483;54;20402;-77
2022/06/25 09:59:24;;;;;;;6.10;3.80;;;26.80;1.00;;;;;;2614683;54;20394;-77
2022/06/25 10:05:12;;;;;;;4.20;3.90;;;27.70;1.00;;;;;;2614996;54;20403;-77
2022/06/25 10:11:03;;;;;;;4.30;4.00;;;26.90;1.00;;;;;;2614726;54;20396;-76
2022/06/25 10:16:50;;;;;;;4.37;3.97;;;26.60;1.00;;;;;;2614297;39;20838;-77
2022/06/25 10:22:39;;;;;;;5.30;4.10;;;26.00;1.00;;;;;;2613779;54;20418;-77
2022/06/25 10:28:31;;;;;;;6.63;3.90;;;25.70;1.00;;;;;;2616137;39;20816;-75
2022/06/25 10:34:19;;;;;;;4.87;4.33;;;27.10;1.00;;;;;;2615701;39;20831;-76
2022/06/25 10:40:08;;;;;;;4.40;4.10;;;28.50;1.00;;;;;;2615588;54;20428;-77
2022/06/25 10:46:23;;;;;;;5.13;4.23;;;28.60;1.00;;;;;;2614290;54;20415;-77
2022/06/25 10:52:16;;;;;;;6.10;4.23;;;28.90;1.00;;;;;;2614263;54;20504;-77
2022/06/25 11:04:38;;;;;;;5.40;4.90;;;27.50;1.00;;;;;;2614197;54;20422;-77
2022/06/25 11:17:10;;;;;;;4.87;4.47;;;29.60;1.00;;;;;;2614425;54;20464;-77
2022/06/25 11:22:57;;;;;;;4.87;4.10;;;29.50;1.00;;;;;;2614090;54;20404;-76
2022/06/25 11:28:48;;;;;;;6.40;4.53;;;29.10;1.00;;;;;;2614724;54;20293;-78
2022/06/25 11:34:36;;;;;;;3.70;3.50;;;29.70;1.00;;;;;;2613761;54;20628;-76
2022/06/25 11:40:23;;;;;;;4.57;4.17;;;28.70;1.00;;;;;;2613649;54;20450;-77
2022/06/25 11:42:50;;;;;;;4.80;4.40;;;28.10;1.00;;;;;;2613824;54;20429;-77
2022/06/25 11:45:16;;;;;;;4.50;4.20;;;28.40;1.00;;;;;;2613999;54;20157;-77
2022/06/25 11:51:04;;;;;;;5.50;5.10;;;29.70;1.00;;;;;;2615059;39;20617;-76
2022/06/25 11:56:54;;;;;;;4.83;4.57;;;29.30;1.00;;;;;;2615620;39;20767;-77
2022/06/25 12:02:42;;;;;;;4.37;3.97;;;28.10;1.00;;;;;;2615149;54;20431;-77
2022/06/25 12:08:31;;;;;;;4.30;3.90;;;27.40;1.00;;;;;;2615063;54;20392;-76
2022/06/25 12:14:24;;;;;;;4.87;4.40;;;28.20;1.00;;;;;;2615041;54;20413;-77
2022/06/25 12:20:14;;;;;;;6.50;4.37;;;28.20;1.00;;;;;;2614558;54;20400;-77
2022/06/25 12:26:01;;;;;;;5.00;4.50;;;27.60;1.00;;;;;;2614855;54;20417;-77
2022/06/25 12:31:58;;;;;;;9.73;4.53;;;28.10;1.00;;;;;;2614803;54;20143;-79
2022/06/25 12:38:01;;;;;;;4.10;3.80;;;27.70;1.00;;;;;;2614940;54;20499;-77
2022/06/25 12:54:08;;;;;;;4.90;3.50;;;27.10;1.00;;;;;;2612004;39;20671;-77
2022/06/25 12:59:57;;;;;;;4.30;3.87;;;26.80;1.00;;;;;;2611816;54;20190;-80
2022/06/25 13:09:25;;;;;;;4.40;4.00;;;26.70;1.00;;;;;;2610915;54;20483;-78
2022/06/25 13:15:13;;;;;;;3.53;3.33;;;26.50;1.00;;;;;;2612362;54;20162;-78
2022/06/25 13:21:00;;;;;;;3.87;3.67;;;26.50;1.00;;;;;;2611685;54;20241;-77
2022/06/25 13:26:47;;;;;;;3.97;3.67;;;26.80;1.00;;;;;;2611961;54;20122;-77
2022/06/25 13:32:35;;;;;;;4.03;3.57;;;27.00;1.00;;;;;;2611238;54;20163;-76
2022/06/25 13:38:23;;;;;;;4.10;3.80;;;27.30;1.00;;;;;;2615287;39;20483;-77
2022/06/25 13:47:36;;;;;;;4.40;4.10;;;27.30;1.00;;;;;;2614972;54;20423;-76
2022/06/25 13:53:23;;;;;;;4.00;3.70;;;27.10;1.00;;;;;;2613368;54;20587;-77
2022/06/25 13:59:11;;;;;;;3.97;3.67;;;26.90;1.00;;;;;;2614913;54;20146;-76
2022/06/25 14:04:59;;;;;;;4.63;4.23;;;27.30;1.00;;;;;;2613846;54;20172;-77
2022/06/25 14:10:47;;;;;;;4.00;3.70;;;27.00;1.00;;;;;;2614195;54;20147;-76
2022/06/25 14:16:35;;;;;;;4.67;3.90;;;27.00;1.00;;;;;;2614512;54;20419;-76
2022/06/25 14:22:22;;;;;;;4.40;3.93;;;27.30;1.00;;;;;;2613516;54;20223;-78
2022/06/25 14:28:10;;;;;;;6.13;3.90;;;27.70;1.00;;;;;;2613701;54;20168;-77
2022/06/25 14:33:58;;;;;;;4.27;3.87;;;28.10;1.00;;;;;;2613157;54;20159;-77
2022/06/25 14:42:51;;;;;;;4.43;3.60;;;27.00;1.00;;;;;;2615389;39;20770;-77
2022/06/25 14:45:16;;;;;;;4.03;3.73;;;27.30;1.00;;;;;;2614310;54;20417;-77
2022/06/25 14:51:04;;;;;;;3.70;3.40;;;27.50;1.00;;;;;;2616190;39;20505;-77
2022/06/25 14:56:52;;;;;;;3.70;3.50;;;28.30;1.00;;;;;;2613278;54;20136;-77
2022/06/25 15:02:40;;;;;;;4.07;3.77;;;28.70;1.00;;;;;;2615359;39;20538;-76
2022/06/25 15:08:28;;;;;;;4.23;4.03;;;28.70;1.00;;;;;;2615711;39;20757;-77
2022/06/25 15:14:16;;;;;;;7.80;4.30;;;28.20;1.00;;;;;;2613854;54;20501;-76
2022/06/25 15:20:08;;;;;;;5.00;4.60;;;28.00;1.00;;;;;;2614830;54;20202;-76
2022/06/25 15:25:55;;;;;;;5.20;4.70;;;27.00;1.00;;;;;;2615364;54;20436;-77
2022/06/25 15:31:43;;;;;;;3.70;3.40;;;27.00;1.00;;;;;;2615387;54;20131;-77
2022/06/25 15:37:31;;;;;;;5.23;4.10;;;27.50;1.00;;;;;;2614779;54;20252;-78
2022/06/25 15:53:29;;;;;;;4.17;3.80;;;28.50;1.00;;;;;;2609938;54;20517;-78
2022/06/25 16:05:23;;;;;;;3.93;3.73;;;27.90;1.00;;;;;;2613501;46;20423;-76
2022/06/25 16:17:17;;;;;;;5.10;3.83;;;27.40;1.00;;;;;;2610741;54;20424;-77
2022/06/25 16:23:04;;;;;;;4.20;3.90;;;27.60;1.00;;;;;;2609806;54;20395;-78
2022/06/25 16:28:52;;;;;;;3.63;3.43;;;27.90;1.00;;;;;;2611914;54;20207;-77
2022/06/25 16:34:39;;;;;;;4.50;4.10;;;27.90;1.00;;;;;;2612177;54;20159;-76
2022/06/25 16:40:27;;;;;;;4.07;3.87;;;27.60;1.00;;;;;;2612172;54;20709;-76
2022/06/25 16:49:41;;;;;;;4.83;4.17;;;27.20;1.00;;;;;;2609701;54;21302;-77
2022/06/25 16:55:28;;;;;;;7.00;4.73;;;26.90;1.00;;;;;;2614009;54;20391;-77
2022/06/25 17:01:16;;;;;;;5.63;3.73;;;27.20;1.00;;;;;;2613700;54;20688;-76
2022/06/25 17:07:04;;;;;;;5.80;5.07;;;27.50;1.00;;;;;;2614838;54;20138;-76
2022/06/25 17:12:52;;;;;;;4.10;3.83;;;27.70;1.00;;;;;;2614789;54;20127;-77
2022/06/25 17:18:41;;;;;;;4.67;4.37;;;27.20;1.00;;;;;;2615555;54;20142;-77
2022/06/25 17:24:28;;;;;;;6.50;3.77;;;27.40;1.00;;;;;;2614148;54;20420;-76
2022/06/25 17:30:16;;;;;;;4.57;4.17;;;27.10;1.00;;;;;;2615695;54;20132;-76
2022/06/25 17:36:04;;;;;;;6.07;3.77;;;27.10;1.00;;;;;;2615281;54;20185;-76
2022/06/25 17:41:52;;;;;;;4.50;4.10;;;26.80;1.00;;;;;;2614836;39;20830;-77
2022/06/25 17:47:53;;;;;;;4.30;4.00;;;26.40;1.00;;;;;;2614191;54;20230;-77
2022/06/25 17:53:42;;;;;;;4.97;3.87;;;26.30;1.00;;;;;;2611528;54;20115;-77
2022/06/25 17:59:29;;;;;;;4.10;3.80;;;26.40;1.00;;;;;;2614287;46;20409;-77
2022/06/25 18:05:19;;;;;;;5.27;4.23;;;26.20;1.00;;;;;;2614163;54;20194;-77
2022/06/25 18:20:52;;;;;;;4.13;3.87;;;25.90;1.00;;;;;;2612271;54;21020;-78
2022/06/25 18:26:39;;;;;;;4.07;3.77;;;25.80;1.00;;;;;;2611645;54;20166;-77
2022/06/25 18:32:28;;;;;;;4.07;3.77;;;25.80;1.00;;;;;;2607929;54;20672;-77
2022/06/25 18:38:15;;;;;;;4.33;3.83;;;25.60;1.00;;;;;;2612673;54;21336;-78
2022/06/25 18:44:02;;;;;;;4.63;3.87;;;25.40;1.00;;;;;;2611574;54;20499;-76
2022/06/25 18:49:49;;;;;;;5.30;4.00;;;25.30;1.00;;;;;;2613954;54;20156;-77
2022/06/25 18:55:37;;;;;;;4.30;4.00;;;25.20;1.00;;;;;;2611973;54;20235;-76
2022/06/25 19:01:26;;;;;;;5.00;4.50;;;25.20;1.00;;;;;;2612833;54;20135;-77
2022/06/25 19:07:13;;;;;;;4.20;3.80;;;25.20;2.50;;;;;;2614851;54;20388;-77
2022/06/25 19:13:01;;;;;;;4.67;4.27;;;25.20;1.80;;;;;;2614237;54;20136;-77
2022/06/25 19:18:49;;;;;;;4.00;3.70;;;25.20;2.90;;;;;;2612296;54;20419;-76
2022/06/25 19:24:37;;;;;;;4.33;3.93;;;25.10;2.50;;;;;;2611027;54;20178;-77
2022/06/25 19:30:27;;;;;;;4.40;4.00;;;24.80;4.30;;;;;;2610349;54;20383;-78
2022/06/25 19:36:14;;;;;;;4.90;4.50;;;24.80;3.80;;;;;;2611998;54;20469;-79
2022/06/25 19:42:02;;;;;;;10.07;5.87;;;24.80;5.80;;;;;;2611243;54;20157;-79
2022/06/25 19:45:07;;;;;;;4.90;4.03;;;24.80;8.30;;;;;;2612046;47;20420;-78
2022/06/25 19:47:34;;;;;;;4.10;3.80;;;24.70;8.30;;;;;;2612758;51;20160;-78
2022/06/25 19:53:21;;;;;;;3.50;3.27;;;24.40;10.00;;;;;;2615519;54;20406;-78
2022/06/25 19:59:09;;;;;;;6.63;5.27;;;24.30;12.30;;;;;;2612655;46;20619;-78
2022/06/25 20:04:57;;;;;;;4.73;4.33;;;23.90;11.30;;;;;;2613962;54;20152;-81
2022/06/25 20:10:46;;;;;;;6.50;5.17;;;24.00;13.00;;;;;;2612671;54;20142;-81
2022/06/25 20:16:33;;;;;;;4.17;3.87;;;23.70;15.20;;;;;;2611649;54;20399;-78
2022/06/25 20:22:21;;;;;;;5.90;4.53;;;23.60;15.40;;;;;;2612295;46;20149;-77
2022/06/25 20:28:09;;;;;;;5.37;4.77;;;23.60;17.10;;;;;;2613940;54;20159;-76
2022/06/25 20:33:56;;;;;;;5.77;4.53;;;23.40;19.50;;;;;;2614963;54;20166;-77
2022/06/25 20:39:44;;;;;;;8.80;7.40;;;23.30;23.10;;;;;;2612170;54;20130;-78
2022/06/25 20:55:46;;;;;;;6.03;5.43;;;23.00;27.50;;;;;;2609661;54;20421;-78
2022/06/25 21:01:33;;;;;;;6.47;5.30;;;22.90;24.20;;;;;;2606949;54;20195;-78
2022/06/25 21:13:26;;;;;;;4.33;3.93;;;23.10;20.40;;;;;;2607691;54;20912;-78
2022/06/25 21:19:15;;;;;;;5.83;5.33;;;23.30;19.10;;;;;;2610963;54;21020;-78
2022/06/25 21:25:03;;;;;;;10.20;4.93;;;23.30;19.00;;;;;;2609990;54;20440;-77
2022/06/25 21:30:50;;;;;;;6.20;5.63;;;23.10;19.50;;;;;;2610007;54;20384;-77
2022/06/25 21:36:37;;;;;;;5.57;5.00;;;22.90;22.00;;;;;;2609972;54;20248;-77
2022/06/25 21:42:25;;;;;;;7.20;4.57;;;23.00;21.70;;;;;;2610509;46;20159;-78
2022/06/25 21:48:13;;;;;;;6.80;5.10;;;22.80;24.60;;;;;;2609052;54;20277;-77
2022/06/25 21:54:04;;;;;;;9.50;5.17;;;22.60;25.00;;;;;;2610622;54;20138;-78
2022/06/25 21:59:52;;;;;;;7.07;6.47;;;22.70;28.20;;;;;;2613601;54;20399;-78
2022/06/25 22:05:41;;;;;;;5.80;5.30;;;22.90;30.40;;;;;;2613989;54;20238;-78
2022/06/25 22:11:29;;;;;;;7.43;5.40;;;22.70;34.60;;;;;;2610491;54;20123;-77
2022/06/25 22:17:16;;;;;;;6.80;5.70;;;22.70;30.60;;;;;;2614660;31;20855;-78
2022/06/25 22:23:04;;;;;;;6.10;5.50;;;22.50;30.00;;;;;;2614710;54;20335;-78
2022/06/25 22:28:52;;;;;;;6.50;5.17;;;22.40;31.50;;;;;;2614300;54;20881;-78
2022/06/25 22:34:39;;;;;;;6.43;5.40;;;22.30;31.70;;;;;;2614460;54;20158;-77
2022/06/25 22:40:27;;;;;;;7.50;5.13;;;22.10;36.00;;;;;;2612079;54;20134;-77
2022/06/25 22:46:15;;;;;;;5.80;5.27;;;21.80;49.80;;;;;;2613315;54;20432;-77
2022/06/25 22:52:04;;;;;;;6.67;5.63;;;21.70;52.10;;;;;;2614057;54;20126;-77
2022/06/25 22:57:52;;;;;;;5.47;4.97;;;21.90;46.90;;;;;;2614774;54;20395;-77
2022/06/25 23:03:40;;;;;;;5.60;5.10;;;21.80;48.80;;;;;;2612890;46;20944;-78
2022/06/25 23:09:28;;;;;;;6.43;5.83;;;21.80;51.40;;;;;;2611038;54;20165;-77
2022/06/25 23:15:17;;;;;;;6.10;5.50;;;21.90;51.80;;;;;;2611283;54;20162;-77
2022/06/25 23:21:05;;;;;;;6.00;5.50;;;21.90;50.50;;;;;;2614095;54;20573;-77
2022/06/25 23:26:53;;;;;;;6.53;5.30;;;21.80;53.90;;;;;;2614164;54;20263;-78
2022/06/25 23:32:41;;;;;;;6.00;5.50;;;21.70;51.30;;;;;;2613300;54;20397;-76
2022/06/25 23:38:29;;;;;;;6.30;5.70;;;21.60;50.00;;;;;;2613759;54;20170;-78
2022/06/25 23:44:17;;;;;;;10.27;5.60;;;21.40;67.70;;;;;;2612641;54;20124;-77
2022/06/25 23:56:57;;;;;;;16.13;14.63;;;21.10;99.90;;;;;;2612673;54;20419;-77
